Pembroke Lakes, Florida
Current Conditions -  °F | °C
As of 10:53 AM on Wednesday 22 Oct 2014 (Local Time) from KHWO Reporting Station
Clear Clear  
Wind Chill: 82°   Ceiling: Unl
Heat Index: 87°   Visibility: 10mi
Dew Point: 72°   Wind: 6mph
Humidity: 71%   Direction: 330°NNW
Pressure: 29.99"   Gusts: NA
Location:  26.026°N, 80.2963°W
Report Text: KHWO 221453Z 33005KT 10SM CLR 28/22 A2999 RMK AO2 SLP156 T02780222 51011
Loading
Personal Weather Stations






























Interactive Weather Map
Tropical Storm Tracking
New forecast layout! Learn more

10-Day Weather Forecast

Advertisements
Track Severe Weather on mobile